• Join FlightAware (Why Join?)
  • Login
  • US Flag 
12:15AM EDT


 

Airport Tracker/Info


-or-


 

Live Flight TrackerFlight Track Log ✈ N777NC ✈ 02-Jul-2013 ✈ KATL - KHSV

Flight Track Log - Related Links

Times and Time Zones

All times are in EDT time to prevent confusion due to time zone crossing. See the N777NC flight status page for this flight to view local times or setup timezone preferences in your user account.

Time Position Orientation Groundspeed Altitude Reporting Facility
EDT Latitude Longitude Course Direction KTS MPH feet Rate Location/Type
10:59AM 33.6519 -84.3756 292° West 414 476 2,800  Level Atlanta Center
11:00AM 33.6833 -84.2958 65° Northeast 325 374 5,000 2,340 Climbing Atlanta Center
11:01AM 33.7628 -84.2836 North 262 302 7,500 2,700 Climbing Atlanta Center
11:02AM 33.6837 -84.8858 280° West  Level FlightAware Approximate
11:02AM 33.8064 -84.3514 308° West 243 280 10,400  Level Atlanta Center
11:03AM 33.7004 -85.0023 280° West  Level FlightAware Approximate
11:03AM 33.8081 -84.4464 271° West 265 305 11,500  Level Atlanta Center
11:04AM 33.7174 -85.1188 292° West  Level FlightAware Approximate
11:04AM 33.8078 -84.5714 270° West 333 383 14,700  Level Atlanta Center
11:05AM 33.8031 -84.6764 267° West 333 383 16,200 1,980 Climbing Atlanta Center
11:06AM 33.8003 -84.7936 268° West 345 397 18,700 2,100 Climbing Atlanta Center
11:07AM 33.7994 -84.9336 270° West 364 419 20,500 1,800 Climbing Atlanta Center
11:08AM 33.8025 -85.0589 272° West 374 430 22,300 1,200 Climbing Atlanta Center
11:09AM 33.8014 -85.1914 269° West 387 445 23,000 300 Climbing Atlanta Center
11:10AM 33.8000 -85.3261 269° West 404 465 23,000  Level Atlanta Center
11:11AM 33.8028 -85.4564 272° West 421 484 23,000  Level Atlanta Center
11:12AM 33.8114 -85.6089 274° West 421 484 23,000  Level Atlanta Center
11:13AM 33.8453 -85.7269 289° West 421 484 23,000  Level Atlanta Center
11:14AM 33.8833 -85.8506 290° West 415 478 23,000  Level Atlanta Center
11:15AM 33.9231 -85.9814 290° West 410 472 23,000 -240 Level Atlanta Center
11:16AM 33.9583 -86.1125 288° West 410 472 22,600 -960 Descending Atlanta Center
11:17AM 34.0147 -86.2342 299° West 410 472 21,100 -1,740 Descending Atlanta Center
11:19AM 34.2019 -86.3542 332° Northwest 411 473 17,800 -1,860 Descending Memphis Center
11:20AM 34.3125 -86.4194 334° Northwest 421 484 16,000 -1,860 Descending Memphis Center
11:21AM 34.4200 -86.4472 348° North 412 474 14,100 -1,920 Descending Memphis Center
11:22AM 34.5167 -86.4731 348° North 389 448 12,200 -2,040 Descending Memphis Center
11:23AM 34.6031 -86.5017 345° North 351 404 10,000 -2,280 Descending Memphis Center
11:24AM 34.6831 -86.5258 346° North 317 365 7,700 -2,220 Descending Memphis Center
11:25AM 34.7608 -86.5450 349° North 292 336 5,600 -1,800 Descending Memphis Center
11:26AM 34.8206 -86.5856 331° Northwest 277 319 4,100 -780 Descending Memphis Center
11:27AM 34.8375 -86.6581 286° West 221 254 4,100 -60 Level Memphis Center
11:28AM 34.8417 -86.7311 274° West 214 246 4,000 -480 Descending Memphis Center
11:29AM 34.7906 -86.7639 208° Southwest 176 203 3,200 -840 Descending Memphis Center